Time;durP1;ratioP1;P1;durP2;ratioP2;P2;SDS_P1;SDS_P2;PMS_P1;PMS_P2;Temp;Humidity;BMP_temperature;BMP_pressure;BME280_temperature;BME280_humidity;BME280_pressure;Samples;Min_cycle;Max_cycle;Signal;HPM_P1;HPM_P2
2023/07/14 00:04:34;;;;;;;5.35;2.38;;;16.70;1.00;;;;;;20793422;28;20059;-43
2023/07/14 00:14:55;;;;;;;6.95;2.92;;;16.70;1.00;;;;;;20790810;28;20060;-43
2023/07/14 00:25:17;;;;;;;8.57;2.30;;;16.80;1.00;;;;;;20792985;28;20037;-43
2023/07/14 00:35:40;;;;;;;7.07;2.40;;;16.80;1.00;;;;;;20813885;28;20106;-43
2023/07/14 00:46:03;;;;;;;8.27;2.67;;;16.70;1.00;;;;;;20805422;28;20049;-43
2023/07/14 00:56:42;;;;;;;6.63;2.70;;;16.80;1.00;;;;;;20812421;28;20116;-42
2023/07/14 01:07:04;;;;;;;;;;;16.70;1.00;;;;;;20799403;28;20439;-43
2023/07/14 01:17:27;;;;;;;6.70;2.85;;;16.70;1.00;;;;;;20804862;28;20019;-43
2023/07/14 01:27:48;;;;;;;8.50;3.10;;;16.70;1.00;;;;;;20805765;28;20322;-43
2023/07/14 01:38:10;;;;;;;8.77;3.22;;;16.70;1.00;;;;;;20802629;28;20136;-43
2023/07/14 01:48:36;;;;;;;8.30;3.70;;;16.80;1.00;;;;;;20794267;28;20029;-43
2023/07/14 01:59:03;;;;;;;7.18;3.35;;;16.70;1.00;;;;;;20799524;28;20298;-43
2023/07/14 02:09:28;;;;;;;10.80;3.90;;;16.70;1.00;;;;;;20808057;28;20040;-43
2023/07/14 02:19:50;;;;;;;7.25;3.63;;;16.60;1.00;;;;;;20811857;28;20346;-42
2023/07/14 02:30:15;;;;;;;6.50;3.72;;;16.60;1.00;;;;;;20826692;28;20337;-43
2023/07/14 02:41:11;;;;;;;7.85;3.97;;;16.50;1.00;;;;;;20803202;28;20335;-42
2023/07/14 02:51:32;;;;;;;7.63;3.88;;;16.40;1.00;;;;;;20797783;28;20444;-43
2023/07/14 03:01:53;;;;;;;8.02;4.53;;;16.20;1.00;;;;;;20795851;28;20033;-42
2023/07/14 03:12:15;;;;;;;11.05;4.85;;;16.20;1.00;;;;;;20805887;28;20131;-42
2023/07/14 03:22:36;;;;;;;8.40;4.20;;;16.10;1.00;;;;;;20792215;28;20071;-42
2023/07/14 03:32:57;;;;;;;7.13;4.05;;;16.00;1.00;;;;;;20795204;28;20069;-43
2023/07/14 03:43:19;;;;;;;8.50;3.78;;;16.00;1.00;;;;;;20796231;28;20219;-42
2023/07/14 03:53:40;;;;;;;7.70;4.60;;;15.90;1.00;;;;;;20790244;28;20064;-43
2023/07/14 04:04:01;;;;;;;6.57;4.15;;;15.80;1.00;;;;;;20803714;28;20068;-42
2023/07/14 04:14:23;;;;;;;6.90;3.97;;;15.70;1.00;;;;;;20808656;28;20080;-42
2023/07/14 04:24:46;;;;;;;6.63;3.60;;;15.80;1.00;;;;;;20800644;28;20045;-43
2023/07/14 04:35:07;;;;;;;6.05;3.20;;;15.80;1.00;;;;;;20789236;28;20082;-43
2023/07/14 04:45:29;;;;;;;5.88;3.15;;;15.80;1.00;;;;;;20810219;28;20041;-42
2023/07/14 04:55:50;;;;;;;7.75;3.65;;;15.80;1.00;;;;;;20802506;28;20372;-42
2023/07/14 05:06:12;;;;;;;8.30;4.60;;;15.70;1.00;;;;;;20797331;28;20293;-43
2023/07/14 05:16:34;;;;;;;6.72;3.72;;;16.00;1.00;;;;;;20809906;28;20989;-43
2023/07/14 05:26:56;;;;;;;9.85;3.63;;;16.10;1.00;;;;;;20814212;28;20056;-42
2023/07/14 05:37:18;;;;;;;9.23;3.58;;;16.40;1.00;;;;;;20794912;28;20040;-42
2023/07/14 05:47:44;;;;;;;8.35;3.53;;;16.50;1.00;;;;;;20802833;28;20116;-43
2023/07/14 05:58:07;;;;;;;10.82;4.88;;;16.70;1.00;;;;;;20800292;28;20260;-42
2023/07/14 06:08:28;;;;;;;13.05;4.80;;;16.90;1.00;;;;;;20801216;28;20555;-42
2023/07/14 06:18:50;;;;;;;10.00;5.15;;;17.10;1.00;;;;;;20799531;28;20079;-42
2023/07/14 06:29:12;;;;;;;10.32;5.05;;;17.10;1.00;;;;;;20811780;28;20151;-42
2023/07/14 06:39:33;;;;;;;10.60;5.32;;;17.30;1.00;;;;;;20800019;28;20065;-42
2023/07/14 06:49:56;;;;;;;12.00;6.05;;;17.50;1.00;;;;;;20818847;28;20074;-43
2023/07/14 07:00:18;;;;;;;10.98;6.93;;;17.70;1.00;;;;;;20815255;28;20041;-42
2023/07/14 07:10:40;;;;;;;17.00;8.60;;;17.90;1.00;;;;;;20818926;28;20431;-42
2023/07/14 07:21:02;;;;;;;10.90;6.63;;;18.30;1.00;;;;;;20832811;28;20415;-43
2023/07/14 07:31:23;;;;;;;12.25;6.93;;;18.30;1.00;;;;;;20807597;28;20520;-43
2023/07/14 07:41:45;;;;;;;11.70;8.25;;;18.30;1.00;;;;;;20822435;28;20072;-43
2023/07/14 07:52:07;;;;;;;14.55;7.72;;;18.50;1.00;;;;;;20808802;28;20041;-43
2023/07/14 08:02:28;;;;;;;15.95;8.43;;;18.60;1.00;;;;;;20832201;28;20156;-43
2023/07/14 08:12:52;;;;;;;13.02;7.35;;;18.90;1.00;;;;;;20814127;28;20083;-42
2023/07/14 08:23:15;;;;;;;12.18;7.82;;;19.00;1.00;;;;;;20806645;28;20678;-43
2023/07/14 08:33:36;;;;;;;13.40;6.85;;;19.20;1.00;;;;;;20810633;28;20045;-43
2023/07/14 08:44:50;;;;;;;13.77;7.30;;;19.40;1.00;;;;;;20824574;28;20120;-43
2023/07/14 08:55:29;;;;;;;15.07;7.00;;;19.50;1.00;;;;;;20794225;28;20045;-43
2023/07/14 09:05:57;;;;;;;10.10;6.38;;;19.80;1.00;;;;;;20811542;28;20512;-43
2023/07/14 09:16:23;;;;;;;9.07;5.87;;;20.10;1.00;;;;;;20835456;28;20069;-43
2023/07/14 09:26:49;;;;;;;11.02;5.25;;;20.00;1.00;;;;;;20829616;28;20799;-43
2023/07/14 09:37:19;;;;;;;8.88;4.97;;;20.30;1.00;;;;;;20824146;28;20079;-43
2023/07/14 09:47:42;;;;;;;7.57;4.35;;;20.20;1.00;;;;;;20824051;28;20546;-43
2023/07/14 09:58:13;;;;;;;7.05;4.25;;;20.50;1.00;;;;;;20829982;28;20069;-43
2023/07/14 10:08:45;;;;;;;7.70;3.90;;;20.50;1.00;;;;;;20811843;28;20173;-43
2023/07/14 10:19:16;;;;;;;7.05;3.40;;;20.90;1.00;;;;;;20800232;28;20066;-43
2023/07/14 10:30:05;;;;;;;5.78;2.70;;;21.00;1.00;;;;;;20824874;28;20087;-43
2023/07/14 10:40:30;;;;;;;8.73;3.08;;;20.90;1.00;;;;;;20812082;28;20095;-43
2023/07/14 10:51:00;;;;;;;6.63;2.65;;;21.00;1.00;;;;;;20814660;28;20913;-43
2023/07/14 11:01:36;;;;;;;5.32;2.55;;;21.00;1.00;;;;;;20807663;28;20069;-43
2023/07/14 11:12:22;;;;;;;5.93;3.10;;;21.00;1.00;;;;;;20792227;28;20053;-43
2023/07/14 11:23:23;;;;;;;6.43;3.22;;;20.60;1.00;;;;;;20810146;28;20132;-43
2023/07/14 11:34:19;;;;;;;7.43;3.85;;;20.50;1.00;;;;;;20759471;28;20910;-43
2023/07/14 11:44:43;;;;;;;7.47;3.65;;;20.40;1.00;;;;;;20805828;28;20048;-43
2023/07/14 11:55:19;;;;;;;5.63;2.92;;;20.40;1.00;;;;;;20807754;28;20920;-43
2023/07/14 12:05:43;;;;;;;6.72;3.00;;;20.70;1.00;;;;;;20795078;28;20063;-43
2023/07/14 12:16:20;;;;;;;6.78;3.60;;;21.10;1.00;;;;;;20781420;28;20711;-43
2023/07/14 12:26:50;;;;;;;5.85;2.90;;;21.80;1.00;;;;;;20806192;28;20037;-45
2023/07/14 12:37:17;;;;;;;5.72;2.63;;;22.00;1.00;;;;;;20815725;28;20715;-45
2023/07/14 12:47:51;;;;;;;4.43;2.72;;;22.40;1.00;;;;;;20817687;28;21228;-45
2023/07/14 12:58:21;;;;;;;6.47;3.47;;;22.60;1.00;;;;;;20828345;28;20043;-45
2023/07/14 13:08:47;;;;;;;5.95;3.40;;;23.00;1.00;;;;;;20819832;28;20325;-45
2023/07/14 13:19:27;;;;;;;4.22;2.13;;;22.90;1.00;;;;;;20803674;28;20489;-45
2023/07/14 13:29:57;;;;;;;4.22;2.50;;;23.30;1.00;;;;;;20826317;28;20156;-45
2023/07/14 13:40:21;;;;;;;6.53;2.65;;;23.20;1.00;;;;;;20824931;28;20119;-45
2023/07/14 13:50:42;;;;;;;4.03;1.88;;;22.90;1.00;;;;;;20825421;28;20100;-45
2023/07/14 14:01:04;;;;;;;3.30;1.90;;;22.80;1.00;;;;;;20837916;28;20443;-45
2023/07/14 14:11:25;;;;;;;4.32;2.13;;;22.90;1.00;;;;;;20840946;28;20076;-45
2023/07/14 14:21:47;;;;;;;6.95;2.65;;;23.20;1.00;;;;;;20825319;28;20095;-45
2023/07/14 14:32:12;;;;;;;4.97;2.40;;;23.10;1.00;;;;;;20849256;28;20065;-45
2023/07/14 14:42:34;;;;;;;4.88;2.70;;;22.90;1.00;;;;;;20824046;28;20037;-45
2023/07/14 14:52:55;;;;;;;2.90;1.67;;;22.90;1.00;;;;;;20828865;28;20042;-45
2023/07/14 15:03:16;;;;;;;5.57;2.50;;;22.90;1.00;;;;;;20819950;28;20039;-45
2023/07/14 15:13:38;;;;;;;4.20;1.90;;;23.10;1.00;;;;;;20830446;28;20264;-45
2023/07/14 15:23:59;;;;;;;4.05;2.03;;;23.40;1.00;;;;;;20828812;28;20127;-45
2023/07/14 15:34:20;;;;;;;4.13;2.53;;;23.50;1.00;;;;;;20825406;28;20076;-45
2023/07/14 15:44:42;;;;;;;4.93;2.03;;;23.30;1.00;;;;;;20845035;28;20082;-45
2023/07/14 15:55:04;;;;;;;5.22;2.40;;;23.40;1.00;;;;;;20836115;28;20587;-45
2023/07/14 16:05:25;;;;;;;4.75;2.00;;;23.50;1.00;;;;;;20830764;28;20041;-45
2023/07/14 16:15:46;;;;;;;4.72;2.40;;;23.50;1.00;;;;;;20812654;28;20132;-45
2023/07/14 16:26:08;;;;;;;4.38;2.70;;;23.30;1.00;;;;;;20816761;28;20615;-45
2023/07/14 16:36:31;;;;;;;4.55;1.98;;;23.20;1.00;;;;;;20824458;28;20038;-45
2023/07/14 16:46:56;;;;;;;4.95;2.35;;;23.10;1.00;;;;;;20795115;28;20325;-45
2023/07/14 16:57:25;;;;;;;4.97;2.15;;;23.00;1.00;;;;;;20789567;28;20080;-45
2023/07/14 17:07:46;;;;;;;5.78;2.90;;;22.80;1.00;;;;;;20810411;28;20421;-45
2023/07/14 17:18:12;;;;;;;4.85;2.22;;;22.70;1.00;;;;;;20825780;28;20103;-45
2023/07/14 17:28:34;;;;;;;4.28;2.17;;;22.80;1.00;;;;;;20813541;28;20036;-45
2023/07/14 17:38:56;;;;;;;4.55;2.40;;;22.80;1.00;;;;;;20800217;28;20548;-45
2023/07/14 17:49:17;;;;;;;5.90;2.90;;;22.70;1.00;;;;;;20800251;28;20049;-45
2023/07/14 17:59:39;;;;;;;5.03;2.42;;;22.70;1.00;;;;;;20815178;28;20132;-45
2023/07/14 18:10:00;;;;;;;4.20;2.03;;;22.70;1.00;;;;;;20812314;28;20162;-45
2023/07/14 18:20:24;;;;;;;3.40;2.08;;;22.60;1.00;;;;;;20806027;28;20061;-45
2023/07/14 18:30:46;;;;;;;4.68;2.40;;;22.50;1.00;;;;;;20809316;28;20255;-45
2023/07/14 18:41:19;;;;;;;4.07;2.20;;;22.50;1.00;;;;;;20808146;28;20551;-45
2023/07/14 18:51:40;;;;;;;5.93;2.83;;;22.40;1.00;;;;;;20810327;28;20083;-45
2023/07/14 19:02:02;;;;;;;4.50;2.40;;;22.30;1.00;;;;;;20788366;28;20333;-45
2023/07/14 19:12:24;;;;;;;4.97;2.55;;;22.20;1.00;;;;;;20779022;28;20077;-45
2023/07/14 19:22:47;;;;;;;5.18;2.58;;;22.20;1.00;;;;;;20783049;28;20499;-45
2023/07/14 19:33:14;;;;;;;4.90;2.40;;;22.10;1.00;;;;;;20800879;28;20072;-45
2023/07/14 19:43:35;;;;;;;6.30;3.00;;;22.00;1.00;;;;;;20800173;28;20075;-44
2023/07/14 19:53:59;;;;;;;6.13;2.92;;;22.00;1.00;;;;;;20800671;28;20184;-45
2023/07/14 20:04:21;;;;;;;5.43;2.80;;;21.90;1.00;;;;;;20781878;28;20048;-45
2023/07/14 20:14:42;;;;;;;5.45;2.72;;;21.90;1.00;;;;;;20794781;28;20081;-45
2023/07/14 20:25:05;;;;;;;5.53;2.40;;;21.90;1.00;;;;;;20790475;28;20060;-44
2023/07/14 20:35:26;;;;;;;6.60;2.90;;;21.90;1.00;;;;;;20795128;28;20075;-44
2023/07/14 20:45:49;;;;;;;4.75;2.88;;;21.90;1.00;;;;;;20783196;28;20451;-44
2023/07/14 20:56:14;;;;;;;5.45;2.92;;;21.70;1.00;;;;;;20784496;28;20044;-44
2023/07/14 21:06:35;;;;;;;5.55;2.63;;;21.60;1.00;;;;;;20810846;28;20218;-44
2023/07/14 21:16:56;;;;;;;6.43;2.95;;;21.30;1.00;;;;;;20798999;28;20148;-44
2023/07/14 21:27:23;;;;;;;5.80;3.45;;;21.20;1.00;;;;;;20811252;28;20045;-44
2023/07/14 21:37:45;;;;;;;7.38;3.25;;;21.20;1.00;;;;;;20818270;28;20408;-44
2023/07/14 21:48:17;;;;;;;4.63;3.25;;;21.20;1.00;;;;;;20816097;28;20076;-44
2023/07/14 21:58:39;;;;;;;8.68;3.50;;;21.10;1.00;;;;;;20819436;28;20147;-44
2023/07/14 22:09:00;;;;;;;7.75;3.72;;;21.10;1.00;;;;;;20804557;28;20437;-45
2023/07/14 22:19:21;;;;;;;5.22;3.33;;;21.10;1.00;;;;;;20804180;28;20033;-44
2023/07/14 22:29:43;;;;;;;6.95;2.92;;;21.10;1.00;;;;;;20797277;28;20079;-44
2023/07/14 22:40:08;;;;;;;5.43;3.03;;;21.10;1.00;;;;;;20816654;28;20037;-44
2023/07/14 22:50:29;;;;;;;6.00;2.90;;;21.20;1.00;;;;;;20800555;28;20041;-44
2023/07/14 23:00:57;;;;;;;6.57;3.08;;;21.10;1.00;;;;;;20796859;28;20072;-44
2023/07/14 23:11:31;;;;;;;8.43;3.57;;;21.20;1.00;;;;;;20814041;28;20048;-44
2023/07/14 23:21:52;;;;;;;5.80;3.35;;;21.40;1.00;;;;;;20796240;28;20071;-44
2023/07/14 23:32:13;;;;;;;7.28;3.03;;;21.70;1.00;;;;;;20798214;28;20072;-44
2023/07/14 23:42:37;;;;;;;5.82;3.40;;;22.00;1.00;;;;;;20809446;28;20201;-44
2023/07/14 23:52:58;;;;;;;4.18;2.60;;;22.30;1.00;;;;;;20800966;28;20455;-45
